sensor_id;sensor_type;location;lat;lon;timestamp;temperature;humidity
59025;DHT22;44806;48.008;13.666;2023-11-21T00:00:00;8.30;99.90
59025;DHT22;44806;48.008;13.666;2023-11-21T00:02:29;8.30;99.90
59025;DHT22;44806;48.008;13.666;2023-11-21T00:04:56;8.30;99.90
59025;DHT22;44806;48.008;13.666;2023-11-21T00:07:23;8.30;99.90
59025;DHT22;44806;48.008;13.666;2023-11-21T00:09:50;8.30;99.90
59025;DHT22;44806;48.008;13.666;2023-11-21T00:12:17;8.30;99.90
59025;DHT22;44806;48.008;13.666;2023-11-21T00:14:43;8.30;99.90
59025;DHT22;44806;48.008;13.666;2023-11-21T00:17:10;8.30;99.90
59025;DHT22;44806;48.008;13.666;2023-11-21T00:19:39;8.20;99.90
59025;DHT22;44806;48.008;13.666;2023-11-21T00:22:05;8.30;99.90
59025;DHT22;44806;48.008;13.666;2023-11-21T00:24:32;8.30;99.90
59025;DHT22;44806;48.008;13.666;2023-11-21T00:26:59;8.40;99.90
59025;DHT22;44806;48.008;13.666;2023-11-21T00:29:26;8.40;99.90
59025;DHT22;44806;48.008;13.666;2023-11-21T00:31:54;8.40;99.90
59025;DHT22;44806;48.008;13.666;2023-11-21T00:34:21;8.40;99.90
59025;DHT22;44806;48.008;13.666;2023-11-21T00:36:49;8.40;99.90
59025;DHT22;44806;48.008;13.666;2023-11-21T00:39:16;8.40;99.90
59025;DHT22;44806;48.008;13.666;2023-11-21T00:41:43;8.40;99.90
59025;DHT22;44806;48.008;13.666;2023-11-21T00:44:10;8.40;99.90
59025;DHT22;44806;48.008;13.666;2023-11-21T00:46:37;8.40;99.90
59025;DHT22;44806;48.008;13.666;2023-11-21T00:49:04;8.40;99.90
59025;DHT22;44806;48.008;13.666;2023-11-21T00:51:31;8.40;99.90
59025;DHT22;44806;48.008;13.666;2023-11-21T00:54:00;8.50;99.90
59025;DHT22;44806;48.008;13.666;2023-11-21T00:56:27;8.40;99.90
59025;DHT22;44806;48.008;13.666;2023-11-21T00:58:54;8.40;99.90
59025;DHT22;44806;48.008;13.666;2023-11-21T01:01:21;8.40;99.90
59025;DHT22;44806;48.008;13.666;2023-11-21T01:03:49;8.40;99.90
59025;DHT22;44806;48.008;13.666;2023-11-21T01:06:16;8.30;99.90
59025;DHT22;44806;48.008;13.666;2023-11-21T01:08:43;8.20;99.90
59025;DHT22;44806;48.008;13.666;2023-11-21T01:11:12;8.20;99.90
59025;DHT22;44806;48.008;13.666;2023-11-21T01:13:40;8.10;99.90
59025;DHT22;44806;48.008;13.666;2023-11-21T01:16:08;8.10;99.90
59025;DHT22;44806;48.008;13.666;2023-11-21T01:18:35;8.10;99.90
59025;DHT22;44806;48.008;13.666;2023-11-21T01:21:03;8.00;99.90
59025;DHT22;44806;48.008;13.666;2023-11-21T01:23:30;7.90;99.90
59025;DHT22;44806;48.008;13.666;2023-11-21T01:25:57;7.90;99.90
59025;DHT22;44806;48.008;13.666;2023-11-21T01:28:25;7.90;99.90
59025;DHT22;44806;48.008;13.666;2023-11-21T01:30:53;7.80;99.90
59025;DHT22;44806;48.008;13.666;2023-11-21T01:33:22;7.70;99.90
59025;DHT22;44806;48.008;13.666;2023-11-21T01:35:50;7.70;99.90
59025;DHT22;44806;48.008;13.666;2023-11-21T01:38:20;7.70;99.90
59025;DHT22;44806;48.008;13.666;2023-11-21T01:40:47;7.70;99.90
59025;DHT22;44806;48.008;13.666;2023-11-21T01:43:14;7.70;99.90
59025;DHT22;44806;48.008;13.666;2023-11-21T01:45:43;7.70;99.90
59025;DHT22;44806;48.008;13.666;2023-11-21T01:48:10;7.60;99.90
59025;DHT22;44806;48.008;13.666;2023-11-21T01:50:38;7.50;99.90
59025;DHT22;44806;48.008;13.666;2023-11-21T01:53:05;7.30;99.90
59025;DHT22;44806;48.008;13.666;2023-11-21T01:55:33;7.30;99.90
59025;DHT22;44806;48.008;13.666;2023-11-21T01:58:01;7.20;99.90
59025;DHT22;44806;48.008;13.666;2023-11-21T02:00:28;7.20;99.90
59025;DHT22;44806;48.008;13.666;2023-11-21T02:02:56;7.30;99.90
59025;DHT22;44806;48.008;13.666;2023-11-21T02:05:24;7.30;99.90
59025;DHT22;44806;48.008;13.666;2023-11-21T02:07:51;7.40;99.90
59025;DHT22;44806;48.008;13.666;2023-11-21T02:10:19;7.50;99.90
59025;DHT22;44806;48.008;13.666;2023-11-21T02:12:48;7.30;99.90
59025;DHT22;44806;48.008;13.666;2023-11-21T02:15:16;7.30;99.90
59025;DHT22;44806;48.008;13.666;2023-11-21T02:17:46;7.40;99.90
59025;DHT22;44806;48.008;13.666;2023-11-21T02:20:13;7.30;99.90
59025;DHT22;44806;48.008;13.666;2023-11-21T02:22:41;7.20;99.90
59025;DHT22;44806;48.008;13.666;2023-11-21T02:25:10;7.30;99.90
59025;DHT22;44806;48.008;13.666;2023-11-21T02:27:36;7.20;99.90
59025;DHT22;44806;48.008;13.666;2023-11-21T02:30:04;7.30;99.90
59025;DHT22;44806;48.008;13.666;2023-11-21T02:32:33;7.40;99.90
59025;DHT22;44806;48.008;13.666;2023-11-21T02:35:00;7.40;99.90
59025;DHT22;44806;48.008;13.666;2023-11-21T02:37:28;7.50;99.90
59025;DHT22;44806;48.008;13.666;2023-11-21T02:39:55;7.50;99.90
59025;DHT22;44806;48.008;13.666;2023-11-21T02:42:24;7.60;99.90
59025;DHT22;44806;48.008;13.666;2023-11-21T02:44:51;7.60;99.90
59025;DHT22;44806;48.008;13.666;2023-11-21T02:47:18;7.60;99.90
59025;DHT22;44806;48.008;13.666;2023-11-21T02:49:44;7.70;99.90
59025;DHT22;44806;48.008;13.666;2023-11-21T02:52:11;7.70;99.90
59025;DHT22;44806;48.008;13.666;2023-11-21T02:54:38;7.80;99.90
59025;DHT22;44806;48.008;13.666;2023-11-21T02:57:05;7.70;99.90
59025;DHT22;44806;48.008;13.666;2023-11-21T02:59:34;7.70;99.90
59025;DHT22;44806;48.008;13.666;2023-11-21T03:02:01;7.70;99.90
59025;DHT22;44806;48.008;13.666;2023-11-21T03:04:28;7.70;99.90
59025;DHT22;44806;48.008;13.666;2023-11-21T03:06:58;7.80;99.90
59025;DHT22;44806;48.008;13.666;2023-11-21T03:09:24;7.80;99.90
59025;DHT22;44806;48.008;13.666;2023-11-21T03:11:52;7.80;99.90
59025;DHT22;44806;48.008;13.666;2023-11-21T03:14:19;7.80;99.90
59025;DHT22;44806;48.008;13.666;2023-11-21T03:16:47;7.80;99.90
59025;DHT22;44806;48.008;13.666;2023-11-21T03:19:15;7.80;99.90
59025;DHT22;44806;48.008;13.666;2023-11-21T03:21:42;7.80;99.90
59025;DHT22;44806;48.008;13.666;2023-11-21T03:24:09;7.80;99.90
59025;DHT22;44806;48.008;13.666;2023-11-21T03:26:37;7.80;99.90
59025;DHT22;44806;48.008;13.666;2023-11-21T03:29:04;7.90;99.90
59025;DHT22;44806;48.008;13.666;2023-11-21T03:34:55;7.80;99.90
59025;DHT22;44806;48.008;13.666;2023-11-21T03:37:23;7.80;99.90
59025;DHT22;44806;48.008;13.666;2023-11-21T03:39:50;7.70;99.90
59025;DHT22;44806;48.008;13.666;2023-11-21T03:42:17;7.80;99.90
59025;DHT22;44806;48.008;13.666;2023-11-21T03:44:44;7.80;99.90
59025;DHT22;44806;48.008;13.666;2023-11-21T03:47:11;7.80;99.90
59025;DHT22;44806;48.008;13.666;2023-11-21T03:49:38;7.80;99.90
59025;DHT22;44806;48.008;13.666;2023-11-21T03:52:07;7.80;99.90
59025;DHT22;44806;48.008;13.666;2023-11-21T03:54:34;7.80;99.90
59025;DHT22;44806;48.008;13.666;2023-11-21T03:57:01;7.80;99.90
59025;DHT22;44806;48.008;13.666;2023-11-21T03:59:28;7.80;99.90
59025;DHT22;44806;48.008;13.666;2023-11-21T04:01:55;7.80;99.90
59025;DHT22;44806;48.008;13.666;2023-11-21T04:04:23;7.70;99.90
59025;DHT22;44806;48.008;13.666;2023-11-21T04:06:50;7.70;99.90
59025;DHT22;44806;48.008;13.666;2023-11-21T04:09:18;7.70;99.90
59025;DHT22;44806;48.008;13.666;2023-11-21T04:11:45;7.80;99.90
59025;DHT22;44806;48.008;13.666;2023-11-21T04:14:13;7.70;99.90
59025;DHT22;44806;48.008;13.666;2023-11-21T04:16:41;7.70;99.90
59025;DHT22;44806;48.008;13.666;2023-11-21T04:19:08;7.70;99.90
59025;DHT22;44806;48.008;13.666;2023-11-21T04:21:36;7.70;99.90
59025;DHT22;44806;48.008;13.666;2023-11-21T04:24:03;7.70;99.90
59025;DHT22;44806;48.008;13.666;2023-11-21T04:26:31;7.80;99.90
59025;DHT22;44806;48.008;13.666;2023-11-21T04:28:58;7.80;99.90
59025;DHT22;44806;48.008;13.666;2023-11-21T04:31:25;7.70;99.90
59025;DHT22;44806;48.008;13.666;2023-11-21T04:33:52;7.80;99.90
59025;DHT22;44806;48.008;13.666;2023-11-21T04:36:19;7.70;99.90
59025;DHT22;44806;48.008;13.666;2023-11-21T04:38:46;7.80;99.90
59025;DHT22;44806;48.008;13.666;2023-11-21T04:41:13;7.80;99.90
59025;DHT22;44806;48.008;13.666;2023-11-21T04:43:41;7.70;99.90
59025;DHT22;44806;48.008;13.666;2023-11-21T04:46:09;7.70;99.90
59025;DHT22;44806;48.008;13.666;2023-11-21T04:48:36;7.70;99.90
59025;DHT22;44806;48.008;13.666;2023-11-21T04:51:03;7.80;99.90
59025;DHT22;44806;48.008;13.666;2023-11-21T04:53:31;7.80;99.90
59025;DHT22;44806;48.008;13.666;2023-11-21T04:55:58;7.80;99.90
59025;DHT22;44806;48.008;13.666;2023-11-21T04:58:24;7.90;99.90
59025;DHT22;44806;48.008;13.666;2023-11-21T05:00:53;7.80;99.90
59025;DHT22;44806;48.008;13.666;2023-11-21T05:03:20;7.80;99.90
59025;DHT22;44806;48.008;13.666;2023-11-21T05:05:49;7.70;99.90
59025;DHT22;44806;48.008;13.666;2023-11-21T05:08:16;7.80;99.90
59025;DHT22;44806;48.008;13.666;2023-11-21T05:10:43;7.80;99.90
59025;DHT22;44806;48.008;13.666;2023-11-21T05:13:10;7.80;99.90
59025;DHT22;44806;48.008;13.666;2023-11-21T05:15:37;7.80;99.90
59025;DHT22;44806;48.008;13.666;2023-11-21T05:18:06;7.80;99.90
59025;DHT22;44806;48.008;13.666;2023-11-21T05:20:33;7.80;99.90
59025;DHT22;44806;48.008;13.666;2023-11-21T05:23:00;7.80;99.90
59025;DHT22;44806;48.008;13.666;2023-11-21T05:25:26;7.80;99.90
59025;DHT22;44806;48.008;13.666;2023-11-21T05:27:53;7.70;99.90
59025;DHT22;44806;48.008;13.666;2023-11-21T05:30:21;7.70;99.90
59025;DHT22;44806;48.008;13.666;2023-11-21T05:32:48;7.70;99.90
59025;DHT22;44806;48.008;13.666;2023-11-21T05:35:17;7.70;99.90
59025;DHT22;44806;48.008;13.666;2023-11-21T05:37:44;7.70;99.90
59025;DHT22;44806;48.008;13.666;2023-11-21T05:40:11;7.80;99.90
59025;DHT22;44806;48.008;13.666;2023-11-21T05:42:39;7.80;99.90
59025;DHT22;44806;48.008;13.666;2023-11-21T05:45:06;7.80;99.90
59025;DHT22;44806;48.008;13.666;2023-11-21T05:47:37;7.80;99.90
59025;DHT22;44806;48.008;13.666;2023-11-21T05:50:05;7.80;99.90
59025;DHT22;44806;48.008;13.666;2023-11-21T05:52:40;7.80;99.90
59025;DHT22;44806;48.008;13.666;2023-11-21T05:55:07;8.00;99.90
59025;DHT22;44806;48.008;13.666;2023-11-21T05:57:35;7.90;99.90
59025;DHT22;44806;48.008;13.666;2023-11-21T06:00:03;7.90;99.90
59025;DHT22;44806;48.008;13.666;2023-11-21T06:02:37;7.90;99.90
59025;DHT22;44806;48.008;13.666;2023-11-21T06:05:06;7.90;99.90
59025;DHT22;44806;48.008;13.666;2023-11-21T06:07:33;7.90;99.90
59025;DHT22;44806;48.008;13.666;2023-11-21T06:10:02;7.90;99.90
59025;DHT22;44806;48.008;13.666;2023-11-21T06:12:32;7.90;99.90
59025;DHT22;44806;48.008;13.666;2023-11-21T06:15:01;7.90;99.90
59025;DHT22;44806;48.008;13.666;2023-11-21T06:17:29;7.90;99.90
59025;DHT22;44806;48.008;13.666;2023-11-21T06:19:56;8.00;99.90
59025;DHT22;44806;48.008;13.666;2023-11-21T06:22:23;8.00;99.90
59025;DHT22;44806;48.008;13.666;2023-11-21T06:24:50;8.00;99.90
59025;DHT22;44806;48.008;13.666;2023-11-21T06:27:18;8.00;99.90
59025;DHT22;44806;48.008;13.666;2023-11-21T06:29:46;8.00;99.90
59025;DHT22;44806;48.008;13.666;2023-11-21T06:32:13;8.00;99.90
59025;DHT22;44806;48.008;13.666;2023-11-21T06:34:41;8.00;99.90
59025;DHT22;44806;48.008;13.666;2023-11-21T06:37:08;8.00;99.90
59025;DHT22;44806;48.008;13.666;2023-11-21T06:39:36;8.00;99.90
59025;DHT22;44806;48.008;13.666;2023-11-21T06:42:04;8.00;99.90
59025;DHT22;44806;48.008;13.666;2023-11-21T06:44:32;8.10;99.90
59025;DHT22;44806;48.008;13.666;2023-11-21T06:47:01;8.00;99.90
59025;DHT22;44806;48.008;13.666;2023-11-21T06:49:28;8.00;99.90
59025;DHT22;44806;48.008;13.666;2023-11-21T06:51:55;8.10;99.90
59025;DHT22;44806;48.008;13.666;2023-11-21T06:54:22;8.00;99.90
59025;DHT22;44806;48.008;13.666;2023-11-21T06:56:49;8.00;99.90
59025;DHT22;44806;48.008;13.666;2023-11-21T06:59:15;8.10;99.90
59025;DHT22;44806;48.008;13.666;2023-11-21T07:01:44;8.10;99.90
59025;DHT22;44806;48.008;13.666;2023-11-21T07:04:10;8.00;99.90
59025;DHT22;44806;48.008;13.666;2023-11-21T07:06:37;7.90;99.90
59025;DHT22;44806;48.008;13.666;2023-11-21T07:09:04;7.90;99.90
59025;DHT22;44806;48.008;13.666;2023-11-21T07:11:31;7.90;99.90
59025;DHT22;44806;48.008;13.666;2023-11-21T07:13:58;7.90;99.90
59025;DHT22;44806;48.008;13.666;2023-11-21T07:16:25;7.90;99.90
59025;DHT22;44806;48.008;13.666;2023-11-21T07:18:54;7.90;99.90
59025;DHT22;44806;48.008;13.666;2023-11-21T07:21:21;8.00;99.90
59025;DHT22;44806;48.008;13.666;2023-11-21T07:23:48;8.00;99.90
59025;DHT22;44806;48.008;13.666;2023-11-21T07:26:15;8.00;99.90
59025;DHT22;44806;48.008;13.666;2023-11-21T07:28:42;8.00;99.90
59025;DHT22;44806;48.008;13.666;2023-11-21T07:31:09;7.90;99.90
59025;DHT22;44806;48.008;13.666;2023-11-21T07:33:37;8.00;99.90
59025;DHT22;44806;48.008;13.666;2023-11-21T07:36:07;8.00;99.90
59025;DHT22;44806;48.008;13.666;2023-11-21T07:38:35;8.00;99.90
59025;DHT22;44806;48.008;13.666;2023-11-21T07:41:02;8.00;99.90
59025;DHT22;44806;48.008;13.666;2023-11-21T07:43:29;8.00;99.90
59025;DHT22;44806;48.008;13.666;2023-11-21T07:46:00;8.10;99.90
59025;DHT22;44806;48.008;13.666;2023-11-21T07:48:28;8.20;99.90
59025;DHT22;44806;48.008;13.666;2023-11-21T07:50:55;8.20;99.90
59025;DHT22;44806;48.008;13.666;2023-11-21T07:53:23;8.20;99.90
59025;DHT22;44806;48.008;13.666;2023-11-21T07:55:50;8.20;99.90
59025;DHT22;44806;48.008;13.666;2023-11-21T07:58:17;8.20;99.90
59025;DHT22;44806;48.008;13.666;2023-11-21T08:00:45;8.20;99.90
59025;DHT22;44806;48.008;13.666;2023-11-21T08:03:13;8.20;99.90
59025;DHT22;44806;48.008;13.666;2023-11-21T08:05:40;8.20;99.90
59025;DHT22;44806;48.008;13.666;2023-11-21T08:08:07;8.20;99.90
59025;DHT22;44806;48.008;13.666;2023-11-21T08:10:36;8.50;99.90
59025;DHT22;44806;48.008;13.666;2023-11-21T08:13:04;8.40;99.90
59025;DHT22;44806;48.008;13.666;2023-11-21T08:15:32;8.40;99.90
59025;DHT22;44806;48.008;13.666;2023-11-21T08:17:58;8.50;99.90
59025;DHT22;44806;48.008;13.666;2023-11-21T08:20:25;8.50;99.90
59025;DHT22;44806;48.008;13.666;2023-11-21T08:22:53;8.50;99.90
59025;DHT22;44806;48.008;13.666;2023-11-21T08:25:22;8.60;99.90
59025;DHT22;44806;48.008;13.666;2023-11-21T08:27:50;8.60;99.90
59025;DHT22;44806;48.008;13.666;2023-11-21T08:30:17;8.70;99.90
59025;DHT22;44806;48.008;13.666;2023-11-21T08:32:44;8.70;99.90
59025;DHT22;44806;48.008;13.666;2023-11-21T08:35:12;8.80;99.90
59025;DHT22;44806;48.008;13.666;2023-11-21T08:37:39;8.80;99.90
59025;DHT22;44806;48.008;13.666;2023-11-21T08:40:07;8.80;99.90
59025;DHT22;44806;48.008;13.666;2023-11-21T08:42:34;8.70;99.90
59025;DHT22;44806;48.008;13.666;2023-11-21T08:45:03;8.80;99.90
59025;DHT22;44806;48.008;13.666;2023-11-21T08:47:31;8.70;99.90
59025;DHT22;44806;48.008;13.666;2023-11-21T08:49:58;8.70;99.90
59025;DHT22;44806;48.008;13.666;2023-11-21T08:52:25;8.70;99.90
59025;DHT22;44806;48.008;13.666;2023-11-21T08:54:52;8.80;99.90
59025;DHT22;44806;48.008;13.666;2023-11-21T08:57:21;8.80;99.90
59025;DHT22;44806;48.008;13.666;2023-11-21T08:59:48;8.80;99.90
59025;DHT22;44806;48.008;13.666;2023-11-21T09:02:22;8.90;99.90
59025;DHT22;44806;48.008;13.666;2023-11-21T09:04:49;8.90;99.90
59025;DHT22;44806;48.008;13.666;2023-11-21T09:07:18;8.90;99.90
59025;DHT22;44806;48.008;13.666;2023-11-21T09:09:46;8.90;99.90
59025;DHT22;44806;48.008;13.666;2023-11-21T09:12:13;8.80;99.90
59025;DHT22;44806;48.008;13.666;2023-11-21T09:14:40;8.80;99.90
59025;DHT22;44806;48.008;13.666;2023-11-21T09:17:07;8.80;99.90
59025;DHT22;44806;48.008;13.666;2023-11-21T09:19:37;8.80;99.90
59025;DHT22;44806;48.008;13.666;2023-11-21T09:22:05;8.70;99.90
59025;DHT22;44806;48.008;13.666;2023-11-21T09:24:32;8.70;99.90
59025;DHT22;44806;48.008;13.666;2023-11-21T09:26:59;8.60;99.90
59025;DHT22;44806;48.008;13.666;2023-11-21T09:29:26;8.60;99.90
59025;DHT22;44806;48.008;13.666;2023-11-21T09:31:54;8.50;99.90
59025;DHT22;44806;48.008;13.666;2023-11-21T09:34:24;8.50;99.90
59025;DHT22;44806;48.008;13.666;2023-11-21T09:36:53;8.60;99.90
59025;DHT22;44806;48.008;13.666;2023-11-21T09:39:20;8.60;99.90
59025;DHT22;44806;48.008;13.666;2023-11-21T09:41:50;8.50;99.90
59025;DHT22;44806;48.008;13.666;2023-11-21T09:44:26;8.50;99.90
59025;DHT22;44806;48.008;13.666;2023-11-21T09:46:59;8.60;99.90
59025;DHT22;44806;48.008;13.666;2023-11-21T09:49:26;8.60;99.90
59025;DHT22;44806;48.008;13.666;2023-11-21T09:51:56;8.60;99.90
59025;DHT22;44806;48.008;13.666;2023-11-21T09:54:23;8.70;99.90
59025;DHT22;44806;48.008;13.666;2023-11-21T09:56:52;8.80;99.90
59025;DHT22;44806;48.008;13.666;2023-11-21T09:59:19;8.70;99.90
59025;DHT22;44806;48.008;13.666;2023-11-21T10:01:46;8.80;99.90
59025;DHT22;44806;48.008;13.666;2023-11-21T10:04:16;8.80;99.90
59025;DHT22;44806;48.008;13.666;2023-11-21T10:06:43;8.80;99.90
59025;DHT22;44806;48.008;13.666;2023-11-21T10:09:14;8.80;99.90
59025;DHT22;44806;48.008;13.666;2023-11-21T10:11:42;8.80;99.90
59025;DHT22;44806;48.008;13.666;2023-11-21T10:14:11;8.80;99.90
59025;DHT22;44806;48.008;13.666;2023-11-21T10:16:40;8.90;99.90
59025;DHT22;44806;48.008;13.666;2023-11-21T10:19:10;8.90;99.90
59025;DHT22;44806;48.008;13.666;2023-11-21T10:21:41;8.90;99.90
59025;DHT22;44806;48.008;13.666;2023-11-21T10:24:09;8.90;99.90
59025;DHT22;44806;48.008;13.666;2023-11-21T10:26:39;8.90;99.90
59025;DHT22;44806;48.008;13.666;2023-11-21T10:29:07;8.90;99.90
59025;DHT22;44806;48.008;13.666;2023-11-21T10:31:34;9.00;99.90
59025;DHT22;44806;48.008;13.666;2023-11-21T10:34:14;9.00;99.90
59025;DHT22;44806;48.008;13.666;2023-11-21T10:36:42;9.00;99.90
59025;DHT22;44806;48.008;13.666;2023-11-21T10:39:09;9.10;99.90
59025;DHT22;44806;48.008;13.666;2023-11-21T10:41:44;9.10;99.90
59025;DHT22;44806;48.008;13.666;2023-11-21T10:44:13;9.10;99.90
59025;DHT22;44806;48.008;13.666;2023-11-21T10:46:45;9.20;99.90
59025;DHT22;44806;48.008;13.666;2023-11-21T10:49:16;9.20;99.90
59025;DHT22;44806;48.008;13.666;2023-11-21T10:51:44;9.20;99.90
59025;DHT22;44806;48.008;13.666;2023-11-21T10:54:10;9.10;99.90
59025;DHT22;44806;48.008;13.666;2023-11-21T10:56:40;9.20;99.90
59025;DHT22;44806;48.008;13.666;2023-11-21T10:59:12;9.20;99.90
59025;DHT22;44806;48.008;13.666;2023-11-21T11:01:42;9.20;99.90
59025;DHT22;44806;48.008;13.666;2023-11-21T11:04:10;9.20;99.90
59025;DHT22;44806;48.008;13.666;2023-11-21T11:06:42;9.30;99.90
59025;DHT22;44806;48.008;13.666;2023-11-21T11:09:11;9.50;99.90
59025;DHT22;44806;48.008;13.666;2023-11-21T11:11:40;9.40;99.90
59025;DHT22;44806;48.008;13.666;2023-11-21T11:14:11;9.40;99.90
59025;DHT22;44806;48.008;13.666;2023-11-21T11:16:39;9.40;99.90
59025;DHT22;44806;48.008;13.666;2023-11-21T11:19:06;9.30;99.90
59025;DHT22;44806;48.008;13.666;2023-11-21T11:21:42;9.30;99.90
59025;DHT22;44806;48.008;13.666;2023-11-21T11:24:36;9.40;99.90
59025;DHT22;44806;48.008;13.666;2023-11-21T11:27:11;9.40;99.90
59025;DHT22;44806;48.008;13.666;2023-11-21T11:29:50;9.40;99.90
59025;DHT22;44806;48.008;13.666;2023-11-21T11:32:26;9.40;99.90
59025;DHT22;44806;48.008;13.666;2023-11-21T11:34:59;9.50;99.90
59025;DHT22;44806;48.008;13.666;2023-11-21T11:37:28;9.50;99.90
59025;DHT22;44806;48.008;13.666;2023-11-21T11:39:55;9.70;99.90
59025;DHT22;44806;48.008;13.666;2023-11-21T11:42:23;9.70;99.90
59025;DHT22;44806;48.008;13.666;2023-11-21T11:44:52;9.80;99.90
59025;DHT22;44806;48.008;13.666;2023-11-21T11:47:26;9.80;99.90
59025;DHT22;44806;48.008;13.666;2023-11-21T11:50:03;9.80;99.90
59025;DHT22;44806;48.008;13.666;2023-11-21T11:52:37;9.80;99.90
59025;DHT22;44806;48.008;13.666;2023-11-21T11:55:06;9.70;99.90
59025;DHT22;44806;48.008;13.666;2023-11-21T11:57:35;9.70;99.90
59025;DHT22;44806;48.008;13.666;2023-11-21T12:00:19;9.70;99.90
59025;DHT22;44806;48.008;13.666;2023-11-21T12:02:50;9.60;99.90
59025;DHT22;44806;48.008;13.666;2023-11-21T12:05:18;9.50;99.90
59025;DHT22;44806;48.008;13.666;2023-11-21T12:07:52;9.50;99.90
59025;DHT22;44806;48.008;13.666;2023-11-21T12:10:20;9.50;99.90
59025;DHT22;44806;48.008;13.666;2023-11-21T12:12:51;9.50;99.90
59025;DHT22;44806;48.008;13.666;2023-11-21T12:15:20;9.60;99.90
59025;DHT22;44806;48.008;13.666;2023-11-21T12:17:48;9.60;99.90
59025;DHT22;44806;48.008;13.666;2023-11-21T12:20:19;9.60;99.90
59025;DHT22;44806;48.008;13.666;2023-11-21T12:22:47;9.60;99.90
59025;DHT22;44806;48.008;13.666;2023-11-21T12:25:15;9.60;99.90
59025;DHT22;44806;48.008;13.666;2023-11-21T12:27:44;9.50;99.90
59025;DHT22;44806;48.008;13.666;2023-11-21T12:30:13;9.50;99.90
59025;DHT22;44806;48.008;13.666;2023-11-21T12:32:43;9.50;99.90
59025;DHT22;44806;48.008;13.666;2023-11-21T12:35:12;9.60;99.90
59025;DHT22;44806;48.008;13.666;2023-11-21T12:37:40;9.40;99.90
59025;DHT22;44806;48.008;13.666;2023-11-21T12:40:09;9.50;99.90
59025;DHT22;44806;48.008;13.666;2023-11-21T12:42:39;9.60;99.90
59025;DHT22;44806;48.008;13.666;2023-11-21T12:45:09;9.60;99.90
59025;DHT22;44806;48.008;13.666;2023-11-21T12:47:42;9.70;99.90
59025;DHT22;44806;48.008;13.666;2023-11-21T12:50:09;9.70;99.90
59025;DHT22;44806;48.008;13.666;2023-11-21T12:52:44;9.70;99.90
59025;DHT22;44806;48.008;13.666;2023-11-21T12:55:16;9.70;99.90
59025;DHT22;44806;48.008;13.666;2023-11-21T12:57:44;9.70;99.90
59025;DHT22;44806;48.008;13.666;2023-11-21T13:00:13;9.90;99.90
59025;DHT22;44806;48.008;13.666;2023-11-21T13:02:54;9.90;99.90
59025;DHT22;44806;48.008;13.666;2023-11-21T13:05:29;9.90;99.90
59025;DHT22;44806;48.008;13.666;2023-11-21T13:07:58;9.80;99.90
59025;DHT22;44806;48.008;13.666;2023-11-21T13:10:28;9.70;99.90
59025;DHT22;44806;48.008;13.666;2023-11-21T13:12:57;9.80;99.90
59025;DHT22;44806;48.008;13.666;2023-11-21T13:15:26;9.80;99.90
59025;DHT22;44806;48.008;13.666;2023-11-21T13:17:55;9.80;99.90
59025;DHT22;44806;48.008;13.666;2023-11-21T13:20:24;9.90;99.90
59025;DHT22;44806;48.008;13.666;2023-11-21T13:22:52;10.00;99.90
59025;DHT22;44806;48.008;13.666;2023-11-21T13:25:22;9.90;99.90
59025;DHT22;44806;48.008;13.666;2023-11-21T13:27:50;10.00;99.90
59025;DHT22;44806;48.008;13.666;2023-11-21T13:30:17;10.00;99.90
59025;DHT22;44806;48.008;13.666;2023-11-21T13:32:49;10.00;99.90
59025;DHT22;44806;48.008;13.666;2023-11-21T13:35:18;10.00;99.90
59025;DHT22;44806;48.008;13.666;2023-11-21T13:37:50;10.10;99.90
59025;DHT22;44806;48.008;13.666;2023-11-21T13:40:21;10.10;99.90
59025;DHT22;44806;48.008;13.666;2023-11-21T13:42:53;10.10;99.90
59025;DHT22;44806;48.008;13.666;2023-11-21T13:45:21;10.20;99.90
59025;DHT22;44806;48.008;13.666;2023-11-21T13:47:50;10.20;99.90
59025;DHT22;44806;48.008;13.666;2023-11-21T13:50:24;10.20;99.90
59025;DHT22;44806;48.008;13.666;2023-11-21T13:52:58;10.20;99.90
59025;DHT22;44806;48.008;13.666;2023-11-21T13:55:28;10.10;99.90
59025;DHT22;44806;48.008;13.666;2023-11-21T13:57:55;10.10;99.90
59025;DHT22;44806;48.008;13.666;2023-11-21T14:00:22;10.20;99.90
59025;DHT22;44806;48.008;13.666;2023-11-21T14:03:12;10.20;99.90
59025;DHT22;44806;48.008;13.666;2023-11-21T14:05:49;10.20;99.90
59025;DHT22;44806;48.008;13.666;2023-11-21T14:08:19;10.20;99.90
59025;DHT22;44806;48.008;13.666;2023-11-21T14:10:46;10.10;99.90
59025;DHT22;44806;48.008;13.666;2023-11-21T14:13:17;10.10;99.90
59025;DHT22;44806;48.008;13.666;2023-11-21T14:15:44;10.00;99.90
59025;DHT22;44806;48.008;13.666;2023-11-21T14:18:16;10.00;99.90
59025;DHT22;44806;48.008;13.666;2023-11-21T14:20:48;10.00;99.90
59025;DHT22;44806;48.008;13.666;2023-11-21T14:23:16;9.90;99.90
59025;DHT22;44806;48.008;13.666;2023-11-21T14:25:43;9.80;99.90
59025;DHT22;44806;48.008;13.666;2023-11-21T14:28:11;9.80;99.90
59025;DHT22;44806;48.008;13.666;2023-11-21T14:30:38;9.80;99.90
59025;DHT22;44806;48.008;13.666;2023-11-21T14:33:06;9.80;99.90
59025;DHT22;44806;48.008;13.666;2023-11-21T14:35:34;9.80;99.90
59025;DHT22;44806;48.008;13.666;2023-11-21T14:38:02;9.80;99.90
59025;DHT22;44806;48.008;13.666;2023-11-21T14:40:30;9.70;99.90
59025;DHT22;44806;48.008;13.666;2023-11-21T14:42:59;9.70;99.90
59025;DHT22;44806;48.008;13.666;2023-11-21T14:45:26;9.70;99.90
59025;DHT22;44806;48.008;13.666;2023-11-21T14:47:54;9.60;99.90
59025;DHT22;44806;48.008;13.666;2023-11-21T14:50:32;9.60;99.90
59025;DHT22;44806;48.008;13.666;2023-11-21T14:53:15;9.50;99.90
59025;DHT22;44806;48.008;13.666;2023-11-21T14:55:41;9.50;99.90
59025;DHT22;44806;48.008;13.666;2023-11-21T14:58:22;9.60;99.90
59025;DHT22;44806;48.008;13.666;2023-11-21T15:00:53;9.70;99.90
59025;DHT22;44806;48.008;13.666;2023-11-21T15:03:24;9.70;99.90
59025;DHT22;44806;48.008;13.666;2023-11-21T15:06:09;9.80;99.90
59025;DHT22;44806;48.008;13.666;2023-11-21T15:08:54;9.80;99.90
59025;DHT22;44806;48.008;13.666;2023-11-21T15:11:50;9.90;99.90
59025;DHT22;44806;48.008;13.666;2023-11-21T15:14:21;9.80;99.90
59025;DHT22;44806;48.008;13.666;2023-11-21T15:16:51;9.90;99.90
59025;DHT22;44806;48.008;13.666;2023-11-21T15:19:25;9.90;99.90
59025;DHT22;44806;48.008;13.666;2023-11-21T15:21:52;9.90;99.90
59025;DHT22;44806;48.008;13.666;2023-11-21T15:24:20;9.90;99.90
59025;DHT22;44806;48.008;13.666;2023-11-21T15:26:47;9.80;99.90
59025;DHT22;44806;48.008;13.666;2023-11-21T15:29:15;9.80;99.90
59025;DHT22;44806;48.008;13.666;2023-11-21T15:31:42;9.70;99.90
59025;DHT22;44806;48.008;13.666;2023-11-21T15:34:14;9.60;99.90
59025;DHT22;44806;48.008;13.666;2023-11-21T15:36:41;9.60;99.90
59025;DHT22;44806;48.008;13.666;2023-11-21T15:39:08;9.70;99.90
59025;DHT22;44806;48.008;13.666;2023-11-21T15:41:38;9.60;99.90